sensor_id;sensor_type;location;lat;lon;timestamp;P1;durP1;ratioP1;P2;durP2;ratioP2
9413;SDS011;4746;35.664;139.738;2023-07-29T00:01:09;6.13;;;5.63;;
9413;SDS011;4746;35.664;139.738;2023-07-29T00:03:36;6.45;;;6.03;;
9413;SDS011;4746;35.664;139.738;2023-07-29T00:06:04;7.20;;;6.60;;
9413;SDS011;4746;35.664;139.738;2023-07-29T00:08:32;7.60;;;7.03;;
9413;SDS011;4746;35.664;139.738;2023-07-29T00:10:59;7.50;;;6.90;;
9413;SDS011;4746;35.664;139.738;2023-07-29T00:13:27;6.85;;;6.35;;
9413;SDS011;4746;35.664;139.738;2023-07-29T00:15:56;6.97;;;6.40;;
9413;SDS011;4746;35.664;139.738;2023-07-29T00:18:23;5.90;;;5.50;;
9413;SDS011;4746;35.664;139.738;2023-07-29T00:20:51;6.15;;;5.75;;
9413;SDS011;4746;35.664;139.738;2023-07-29T00:23:18;6.90;;;6.30;;
9413;SDS011;4746;35.664;139.738;2023-07-29T00:25:46;6.75;;;6.07;;
9413;SDS011;4746;35.664;139.738;2023-07-29T00:28:14;6.78;;;6.18;;
9413;SDS011;4746;35.664;139.738;2023-07-29T00:30:42;7.20;;;6.65;;
9413;SDS011;4746;35.664;139.738;2023-07-29T00:33:09;8.90;;;6.82;;
9413;SDS011;4746;35.664;139.738;2023-07-29T00:35:37;7.43;;;6.88;;
9413;SDS011;4746;35.664;139.738;2023-07-29T00:38:04;7.50;;;6.97;;
9413;SDS011;4746;35.664;139.738;2023-07-29T00:40:32;8.13;;;7.53;;
9413;SDS011;4746;35.664;139.738;2023-07-29T00:43:02;8.18;;;7.43;;
9413;SDS011;4746;35.664;139.738;2023-07-29T00:45:30;8.25;;;6.10;;
9413;SDS011;4746;35.664;139.738;2023-07-29T00:48:00;7.60;;;6.03;;
9413;SDS011;4746;35.664;139.738;2023-07-29T00:50:30;7.35;;;5.75;;
9413;SDS011;4746;35.664;139.738;2023-07-29T00:52:59;11.63;;;6.35;;
9413;SDS011;4746;35.664;139.738;2023-07-29T00:55:27;7.43;;;5.78;;
9413;SDS011;4746;35.664;139.738;2023-07-29T00:57:55;8.65;;;6.35;;
9413;SDS011;4746;35.664;139.738;2023-07-29T01:00:23;8.68;;;6.43;;
9413;SDS011;4746;35.664;139.738;2023-07-29T01:02:51;9.23;;;5.95;;
9413;SDS011;4746;35.664;139.738;2023-07-29T01:05:20;7.68;;;5.40;;
9413;SDS011;4746;35.664;139.738;2023-07-29T01:08:12;6.55;;;5.95;;
9413;SDS011;4746;35.664;139.738;2023-07-29T01:11:13;7.45;;;5.75;;
9413;SDS011;4746;35.664;139.738;2023-07-29T01:14:25;6.85;;;5.22;;
9413;SDS011;4746;35.664;139.738;2023-07-29T01:17:08;7.60;;;5.82;;
9413;SDS011;4746;35.664;139.738;2023-07-29T01:22:36;6.57;;;5.97;;
9413;SDS011;4746;35.664;139.738;2023-07-29T01:25:05;7.35;;;5.80;;
9413;SDS011;4746;35.664;139.738;2023-07-29T01:27:33;8.02;;;6.20;;
9413;SDS011;4746;35.664;139.738;2023-07-29T01:30:02;7.78;;;6.20;;
9413;SDS011;4746;35.664;139.738;2023-07-29T01:32:36;10.88;;;6.47;;
9413;SDS011;4746;35.664;139.738;2023-07-29T01:36:02;7.45;;;6.63;;
9413;SDS011;4746;35.664;139.738;2023-07-29T01:38:40;7.70;;;6.03;;
9413;SDS011;4746;35.664;139.738;2023-07-29T01:41:10;7.47;;;6.63;;
9413;SDS011;4746;35.664;139.738;2023-07-29T01:43:39;6.93;;;6.28;;
9413;SDS011;4746;35.664;139.738;2023-07-29T01:46:10;7.47;;;5.95;;
9413;SDS011;4746;35.664;139.738;2023-07-29T01:48:39;8.02;;;6.63;;
9413;SDS011;4746;35.664;139.738;2023-07-29T01:51:07;6.38;;;5.78;;
9413;SDS011;4746;35.664;139.738;2023-07-29T01:53:38;7.97;;;5.28;;
9413;SDS011;4746;35.664;139.738;2023-07-29T01:56:05;9.48;;;6.10;;
9413;SDS011;4746;35.664;139.738;2023-07-29T01:58:33;7.68;;;5.15;;
9413;SDS011;4746;35.664;139.738;2023-07-29T02:01:00;6.60;;;5.18;;
9413;SDS011;4746;35.664;139.738;2023-07-29T02:03:28;5.95;;;4.90;;
9413;SDS011;4746;35.664;139.738;2023-07-29T02:05:55;7.93;;;4.70;;
9413;SDS011;4746;35.664;139.738;2023-07-29T02:08:23;7.20;;;5.35;;
9413;SDS011;4746;35.664;139.738;2023-07-29T02:10:50;7.93;;;5.15;;
9413;SDS011;4746;35.664;139.738;2023-07-29T02:13:18;6.35;;;4.88;;
9413;SDS011;4746;35.664;139.738;2023-07-29T02:15:45;5.25;;;4.78;;
9413;SDS011;4746;35.664;139.738;2023-07-29T02:18:13;6.40;;;4.18;;
9413;SDS011;4746;35.664;139.738;2023-07-29T02:20:40;4.40;;;3.85;;
9413;SDS011;4746;35.664;139.738;2023-07-29T02:23:14;6.30;;;4.30;;
9413;SDS011;4746;35.664;139.738;2023-07-29T02:25:42;5.90;;;4.55;;
9413;SDS011;4746;35.664;139.738;2023-07-29T02:28:10;7.13;;;4.22;;
9413;SDS011;4746;35.664;139.738;2023-07-29T02:30:40;5.55;;;3.65;;
9413;SDS011;4746;35.664;139.738;2023-07-29T02:33:10;5.20;;;3.60;;
9413;SDS011;4746;35.664;139.738;2023-07-29T02:35:37;7.70;;;4.35;;
9413;SDS011;4746;35.664;139.738;2023-07-29T02:38:09;9.65;;;4.13;;
9413;SDS011;4746;35.664;139.738;2023-07-29T02:40:37;7.82;;;4.20;;
9413;SDS011;4746;35.664;139.738;2023-07-29T02:43:05;7.30;;;4.32;;
9413;SDS011;4746;35.664;139.738;2023-07-29T02:45:33;5.78;;;4.00;;
9413;SDS011;4746;35.664;139.738;2023-07-29T02:48:01;4.10;;;3.70;;
9413;SDS011;4746;35.664;139.738;2023-07-29T02:50:29;6.97;;;3.83;;
9413;SDS011;4746;35.664;139.738;2023-07-29T02:52:56;6.93;;;4.63;;
9413;SDS011;4746;35.664;139.738;2023-07-29T02:55:24;4.60;;;3.90;;
9413;SDS011;4746;35.664;139.738;2023-07-29T02:57:52;5.53;;;4.78;;
9413;SDS011;4746;35.664;139.738;2023-07-29T03:00:20;4.47;;;3.65;;
9413;SDS011;4746;35.664;139.738;2023-07-29T03:02:47;6.10;;;3.90;;
9413;SDS011;4746;35.664;139.738;2023-07-29T03:05:17;4.40;;;3.70;;
9413;SDS011;4746;35.664;139.738;2023-07-29T03:07:45;8.85;;;4.15;;
9413;SDS011;4746;35.664;139.738;2023-07-29T03:13:40;6.80;;;4.40;;
9413;SDS011;4746;35.664;139.738;2023-07-29T03:18:42;5.70;;;4.07;;
9413;SDS011;4746;35.664;139.738;2023-07-29T03:21:10;6.90;;;4.00;;
9413;SDS011;4746;35.664;139.738;2023-07-29T03:23:38;5.85;;;4.15;;
9413;SDS011;4746;35.664;139.738;2023-07-29T03:26:06;6.63;;;3.90;;
9413;SDS011;4746;35.664;139.738;2023-07-29T03:28:38;5.53;;;3.95;;
9413;SDS011;4746;35.664;139.738;2023-07-29T03:31:08;5.10;;;4.05;;
9413;SDS011;4746;35.664;139.738;2023-07-29T03:33:38;5.05;;;3.50;;
9413;SDS011;4746;35.664;139.738;2023-07-29T03:36:05;4.85;;;4.07;;
9413;SDS011;4746;35.664;139.738;2023-07-29T03:38:33;4.88;;;3.90;;
9413;SDS011;4746;35.664;139.738;2023-07-29T03:41:06;6.55;;;3.50;;
9413;SDS011;4746;35.664;139.738;2023-07-29T03:43:35;4.88;;;3.80;;
9413;SDS011;4746;35.664;139.738;2023-07-29T03:46:02;4.20;;;3.47;;
9413;SDS011;4746;35.664;139.738;2023-07-29T03:48:30;4.25;;;3.65;;
9413;SDS011;4746;35.664;139.738;2023-07-29T03:50:58;5.93;;;3.92;;
9413;SDS011;4746;35.664;139.738;2023-07-29T03:53:25;5.40;;;4.40;;
9413;SDS011;4746;35.664;139.738;2023-07-29T03:55:53;7.53;;;4.55;;
9413;SDS011;4746;35.664;139.738;2023-07-29T03:58:21;6.55;;;4.35;;
9413;SDS011;4746;35.664;139.738;2023-07-29T04:00:49;7.78;;;4.32;;
9413;SDS011;4746;35.664;139.738;2023-07-29T04:03:17;5.97;;;5.30;;
9413;SDS011;4746;35.664;139.738;2023-07-29T04:05:44;7.22;;;5.43;;
9413;SDS011;4746;35.664;139.738;2023-07-29T04:08:12;6.90;;;5.65;;
9413;SDS011;4746;35.664;139.738;2023-07-29T04:10:42;7.40;;;5.70;;
9413;SDS011;4746;35.664;139.738;2023-07-29T04:13:22;8.63;;;5.28;;
9413;SDS011;4746;35.664;139.738;2023-07-29T04:15:50;5.18;;;4.78;;
9413;SDS011;4746;35.664;139.738;2023-07-29T04:18:17;7.93;;;5.10;;
9413;SDS011;4746;35.664;139.738;2023-07-29T04:20:45;7.40;;;4.72;;
9413;SDS011;4746;35.664;139.738;2023-07-29T04:23:13;6.97;;;5.10;;
9413;SDS011;4746;35.664;139.738;2023-07-29T04:25:41;6.55;;;5.15;;
9413;SDS011;4746;35.664;139.738;2023-07-29T04:28:08;7.40;;;5.82;;
9413;SDS011;4746;35.664;139.738;2023-07-29T04:30:36;9.85;;;6.22;;
9413;SDS011;4746;35.664;139.738;2023-07-29T04:33:03;7.88;;;5.57;;
9413;SDS011;4746;35.664;139.738;2023-07-29T04:35:31;9.15;;;5.60;;
9413;SDS011;4746;35.664;139.738;2023-07-29T04:37:58;7.68;;;5.47;;
9413;SDS011;4746;35.664;139.738;2023-07-29T04:40:26;7.55;;;5.30;;
9413;SDS011;4746;35.664;139.738;2023-07-29T04:42:54;8.07;;;6.40;;
9413;SDS011;4746;35.664;139.738;2023-07-29T04:45:21;7.45;;;6.13;;
9413;SDS011;4746;35.664;139.738;2023-07-29T04:47:49;11.00;;;5.25;;
9413;SDS011;4746;35.664;139.738;2023-07-29T04:50:17;8.40;;;6.07;;
9413;SDS011;4746;35.664;139.738;2023-07-29T04:52:45;8.05;;;5.30;;
9413;SDS011;4746;35.664;139.738;2023-07-29T04:55:12;8.07;;;5.38;;
9413;SDS011;4746;35.664;139.738;2023-07-29T04:57:40;7.95;;;5.70;;
9413;SDS011;4746;35.664;139.738;2023-07-29T05:00:07;6.40;;;5.80;;
9413;SDS011;4746;35.664;139.738;2023-07-29T05:02:35;6.82;;;5.32;;
9413;SDS011;4746;35.664;139.738;2023-07-29T05:05:03;7.00;;;5.30;;
9413;SDS011;4746;35.664;139.738;2023-07-29T05:07:31;12.95;;;6.57;;
9413;SDS011;4746;35.664;139.738;2023-07-29T05:09:59;6.72;;;4.78;;
9413;SDS011;4746;35.664;139.738;2023-07-29T05:12:26;7.82;;;5.00;;
9413;SDS011;4746;35.664;139.738;2023-07-29T05:14:54;7.05;;;5.05;;
9413;SDS011;4746;35.664;139.738;2023-07-29T05:17:22;8.70;;;5.80;;
9413;SDS011;4746;35.664;139.738;2023-07-29T05:19:49;5.55;;;5.13;;
9413;SDS011;4746;35.664;139.738;2023-07-29T05:22:17;6.18;;;5.55;;
9413;SDS011;4746;35.664;139.738;2023-07-29T05:24:44;5.78;;;5.22;;
9413;SDS011;4746;35.664;139.738;2023-07-29T05:27:12;5.63;;;4.60;;
9413;SDS011;4746;35.664;139.738;2023-07-29T05:29:39;4.78;;;4.47;;
9413;SDS011;4746;35.664;139.738;2023-07-29T05:32:07;4.53;;;4.18;;
9413;SDS011;4746;35.664;139.738;2023-07-29T05:34:34;5.95;;;4.45;;
9413;SDS011;4746;35.664;139.738;2023-07-29T05:37:02;4.43;;;4.10;;
9413;SDS011;4746;35.664;139.738;2023-07-29T05:39:30;6.00;;;4.55;;
9413;SDS011;4746;35.664;139.738;2023-07-29T05:41:58;3.65;;;3.42;;
9413;SDS011;4746;35.664;139.738;2023-07-29T05:44:28;4.47;;;4.07;;
9413;SDS011;4746;35.664;139.738;2023-07-29T05:46:58;3.95;;;3.55;;
9413;SDS011;4746;35.664;139.738;2023-07-29T05:49:27;4.93;;;4.25;;
9413;SDS011;4746;35.664;139.738;2023-07-29T05:51:54;4.70;;;4.40;;
9413;SDS011;4746;35.664;139.738;2023-07-29T05:54:22;6.60;;;4.82;;
9413;SDS011;4746;35.664;139.738;2023-07-29T05:56:49;4.50;;;4.10;;
9413;SDS011;4746;35.664;139.738;2023-07-29T05:59:17;5.05;;;4.20;;
9413;SDS011;4746;35.664;139.738;2023-07-29T06:01:46;4.40;;;3.80;;
9413;SDS011;4746;35.664;139.738;2023-07-29T06:04:13;7.05;;;3.80;;
9413;SDS011;4746;35.664;139.738;2023-07-29T06:06:41;3.85;;;3.55;;
9413;SDS011;4746;35.664;139.738;2023-07-29T06:09:08;5.90;;;3.83;;
9413;SDS011;4746;35.664;139.738;2023-07-29T06:11:36;3.92;;;3.58;;
9413;SDS011;4746;35.664;139.738;2023-07-29T06:14:03;5.43;;;3.58;;
9413;SDS011;4746;35.664;139.738;2023-07-29T06:16:31;4.80;;;3.83;;
9413;SDS011;4746;35.664;139.738;2023-07-29T06:18:58;4.25;;;3.70;;
9413;SDS011;4746;35.664;139.738;2023-07-29T06:21:25;5.93;;;3.90;;
9413;SDS011;4746;35.664;139.738;2023-07-29T06:23:53;5.53;;;3.88;;
9413;SDS011;4746;35.664;139.738;2023-07-29T06:26:20;4.55;;;4.15;;
9413;SDS011;4746;35.664;139.738;2023-07-29T06:28:48;3.63;;;3.33;;
9413;SDS011;4746;35.664;139.738;2023-07-29T06:31:15;4.20;;;3.80;;
9413;SDS011;4746;35.664;139.738;2023-07-29T06:33:46;4.32;;;3.33;;
9413;SDS011;4746;35.664;139.738;2023-07-29T06:36:13;4.20;;;3.17;;
9413;SDS011;4746;35.664;139.738;2023-07-29T06:38:41;3.75;;;3.45;;
9413;SDS011;4746;35.664;139.738;2023-07-29T06:41:08;4.22;;;3.30;;
9413;SDS011;4746;35.664;139.738;2023-07-29T06:43:36;4.75;;;3.90;;
9413;SDS011;4746;35.664;139.738;2023-07-29T06:46:03;4.22;;;3.70;;
9413;SDS011;4746;35.664;139.738;2023-07-29T06:48:31;4.88;;;3.30;;
9413;SDS011;4746;35.664;139.738;2023-07-29T06:50:58;3.47;;;3.00;;
9413;SDS011;4746;35.664;139.738;2023-07-29T06:53:27;5.28;;;3.30;;
9413;SDS011;4746;35.664;139.738;2023-07-29T06:55:55;3.40;;;3.20;;
9413;SDS011;4746;35.664;139.738;2023-07-29T06:58:23;4.70;;;3.25;;
9413;SDS011;4746;35.664;139.738;2023-07-29T07:00:50;3.90;;;3.38;;
9413;SDS011;4746;35.664;139.738;2023-07-29T07:03:18;6.45;;;3.70;;
9413;SDS011;4746;35.664;139.738;2023-07-29T07:05:45;3.78;;;3.25;;
9413;SDS011;4746;35.664;139.738;2023-07-29T07:08:13;3.40;;;3.20;;
9413;SDS011;4746;35.664;139.738;2023-07-29T07:10:40;4.25;;;3.90;;
9413;SDS011;4746;35.664;139.738;2023-07-29T07:13:08;5.00;;;3.47;;
9413;SDS011;4746;35.664;139.738;2023-07-29T07:15:35;3.83;;;3.45;;
9413;SDS011;4746;35.664;139.738;2023-07-29T07:18:03;4.18;;;3.75;;
9413;SDS011;4746;35.664;139.738;2023-07-29T07:20:30;3.60;;;3.40;;
9413;SDS011;4746;35.664;139.738;2023-07-29T07:22:58;5.57;;;3.47;;
9413;SDS011;4746;35.664;139.738;2023-07-29T07:25:25;3.83;;;3.47;;
9413;SDS011;4746;35.664;139.738;2023-07-29T07:27:54;3.80;;;3.42;;
9413;SDS011;4746;35.664;139.738;2023-07-29T07:30:21;5.70;;;3.72;;
9413;SDS011;4746;35.664;139.738;2023-07-29T07:32:49;5.07;;;3.28;;
9413;SDS011;4746;35.664;139.738;2023-07-29T07:35:16;3.30;;;2.88;;
9413;SDS011;4746;35.664;139.738;2023-07-29T07:37:44;3.58;;;3.20;;
9413;SDS011;4746;35.664;139.738;2023-07-29T07:40:11;4.15;;;3.17;;
9413;SDS011;4746;35.664;139.738;2023-07-29T07:42:39;3.70;;;3.40;;
9413;SDS011;4746;35.664;139.738;2023-07-29T07:45:06;3.75;;;3.45;;
9413;SDS011;4746;35.664;139.738;2023-07-29T07:47:35;3.47;;;3.17;;
9413;SDS011;4746;35.664;139.738;2023-07-29T07:50:03;3.30;;;3.00;;
9413;SDS011;4746;35.664;139.738;2023-07-29T07:52:31;3.70;;;3.40;;
9413;SDS011;4746;35.664;139.738;2023-07-29T07:54:58;3.47;;;3.20;;
9413;SDS011;4746;35.664;139.738;2023-07-29T07:57:26;4.32;;;3.10;;
9413;SDS011;4746;35.664;139.738;2023-07-29T07:59:53;3.97;;;3.05;;
9413;SDS011;4746;35.664;139.738;2023-07-29T08:02:21;3.35;;;3.03;;
9413;SDS011;4746;35.664;139.738;2023-07-29T08:04:48;2.88;;;2.70;;
9413;SDS011;4746;35.664;139.738;2023-07-29T08:07:16;4.72;;;3.20;;
9413;SDS011;4746;35.664;139.738;2023-07-29T08:09:43;2.78;;;2.50;;
9413;SDS011;4746;35.664;139.738;2023-07-29T08:12:11;2.70;;;2.53;;
9413;SDS011;4746;35.664;139.738;2023-07-29T08:14:40;2.75;;;2.50;;
9413;SDS011;4746;35.664;139.738;2023-07-29T08:17:07;2.78;;;2.40;;
9413;SDS011;4746;35.664;139.738;2023-07-29T08:19:35;2.63;;;2.42;;
9413;SDS011;4746;35.664;139.738;2023-07-29T08:22:02;3.20;;;2.67;;
9413;SDS011;4746;35.664;139.738;2023-07-29T08:24:31;4.10;;;2.80;;
9413;SDS011;4746;35.664;139.738;2023-07-29T08:26:59;3.13;;;2.92;;
9413;SDS011;4746;35.664;139.738;2023-07-29T08:29:29;3.00;;;2.80;;
9413;SDS011;4746;35.664;139.738;2023-07-29T08:31:57;2.60;;;2.40;;
9413;SDS011;4746;35.664;139.738;2023-07-29T08:34:24;3.05;;;2.78;;
9413;SDS011;4746;35.664;139.738;2023-07-29T08:36:51;4.68;;;2.80;;
9413;SDS011;4746;35.664;139.738;2023-07-29T08:39:19;4.57;;;2.42;;
9413;SDS011;4746;35.664;139.738;2023-07-29T08:44:43;3.00;;;2.80;;
9413;SDS011;4746;35.664;139.738;2023-07-29T08:47:14;2.58;;;2.33;;
9413;SDS011;4746;35.664;139.738;2023-07-29T08:49:43;2.42;;;2.28;;
9413;SDS011;4746;35.664;139.738;2023-07-29T08:52:12;2.65;;;2.45;;
9413;SDS011;4746;35.664;139.738;2023-07-29T08:54:41;3.03;;;2.80;;
9413;SDS011;4746;35.664;139.738;2023-07-29T08:57:09;2.80;;;2.25;;
9413;SDS011;4746;35.664;139.738;2023-07-29T08:59:37;2.22;;;2.08;;
9413;SDS011;4746;35.664;139.738;2023-07-29T09:02:06;3.72;;;2.28;;
9413;SDS011;4746;35.664;139.738;2023-07-29T09:04:34;2.85;;;2.47;;
9413;SDS011;4746;35.664;139.738;2023-07-29T09:07:01;2.20;;;2.10;;
9413;SDS011;4746;35.664;139.738;2023-07-29T09:09:31;3.08;;;2.67;;
9413;SDS011;4746;35.664;139.738;2023-07-29T09:11:59;2.78;;;2.58;;
9413;SDS011;4746;35.664;139.738;2023-07-29T09:14:26;3.55;;;2.58;;
9413;SDS011;4746;35.664;139.738;2023-07-29T09:16:54;2.55;;;2.33;;
9413;SDS011;4746;35.664;139.738;2023-07-29T09:19:25;3.47;;;2.50;;
9413;SDS011;4746;35.664;139.738;2023-07-29T09:21:52;2.75;;;2.55;;
9413;SDS011;4746;35.664;139.738;2023-07-29T09:24:20;2.67;;;2.47;;
9413;SDS011;4746;35.664;139.738;2023-07-29T09:26:49;3.38;;;2.50;;
9413;SDS011;4746;35.664;139.738;2023-07-29T09:29:22;3.15;;;2.50;;
9413;SDS011;4746;35.664;139.738;2023-07-29T09:31:55;2.67;;;2.45;;
9413;SDS011;4746;35.664;139.738;2023-07-29T09:34:49;2.95;;;2.72;;
9413;SDS011;4746;35.664;139.738;2023-07-29T09:37:23;2.88;;;2.72;;
9413;SDS011;4746;35.664;139.738;2023-07-29T09:39:51;2.63;;;2.47;;
9413;SDS011;4746;35.664;139.738;2023-07-29T09:42:19;2.80;;;2.60;;
9413;SDS011;4746;35.664;139.738;2023-07-29T09:44:49;3.40;;;2.58;;
9413;SDS011;4746;35.664;139.738;2023-07-29T09:47:24;3.78;;;2.63;;
9413;SDS011;4746;35.664;139.738;2023-07-29T09:49:52;2.83;;;2.63;;
9413;SDS011;4746;35.664;139.738;2023-07-29T09:52:21;3.70;;;2.88;;
9413;SDS011;4746;35.664;139.738;2023-07-29T09:54:50;3.90;;;3.15;;
9413;SDS011;4746;35.664;139.738;2023-07-29T09:57:18;3.60;;;2.90;;
9413;SDS011;4746;35.664;139.738;2023-07-29T09:59:54;3.28;;;2.97;;
9413;SDS011;4746;35.664;139.738;2023-07-29T10:02:22;2.90;;;2.70;;
9413;SDS011;4746;35.664;139.738;2023-07-29T10:04:54;3.25;;;2.80;;
9413;SDS011;4746;35.664;139.738;2023-07-29T10:07:23;3.83;;;2.90;;
9413;SDS011;4746;35.664;139.738;2023-07-29T10:09:54;3.03;;;2.55;;
9413;SDS011;4746;35.664;139.738;2023-07-29T10:12:23;2.80;;;2.38;;
9413;SDS011;4746;35.664;139.738;2023-07-29T10:14:55;3.08;;;2.80;;
9413;SDS011;4746;35.664;139.738;2023-07-29T10:17:33;3.45;;;2.75;;
9413;SDS011;4746;35.664;139.738;2023-07-29T10:20:05;2.95;;;2.63;;
9413;SDS011;4746;35.664;139.738;2023-07-29T10:22:37;3.53;;;2.65;;
9413;SDS011;4746;35.664;139.738;2023-07-29T10:25:16;2.78;;;2.50;;
9413;SDS011;4746;35.664;139.738;2023-07-29T10:28:04;2.78;;;2.58;;
9413;SDS011;4746;35.664;139.738;2023-07-29T10:30:33;3.92;;;2.95;;
9413;SDS011;4746;35.664;139.738;2023-07-29T10:33:02;3.35;;;3.05;;
9413;SDS011;4746;35.664;139.738;2023-07-29T10:35:32;2.78;;;2.58;;
9413;SDS011;4746;35.664;139.738;2023-07-29T10:38:01;3.47;;;3.20;;
9413;SDS011;4746;35.664;139.738;2023-07-29T10:43:33;3.55;;;3.10;;
9413;SDS011;4746;35.664;139.738;2023-07-29T10:46:17;3.58;;;2.88;;
9413;SDS011;4746;35.664;139.738;2023-07-29T10:48:53;3.05;;;2.85;;
9413;SDS011;4746;35.664;139.738;2023-07-29T10:54:02;3.35;;;2.85;;
9413;SDS011;4746;35.664;139.738;2023-07-29T10:56:36;4.32;;;2.67;;
9413;SDS011;4746;35.664;139.738;2023-07-29T11:01:51;4.60;;;3.20;;
9413;SDS011;4746;35.664;139.738;2023-07-29T11:04:27;3.67;;;3.00;;
9413;SDS011;4746;35.664;139.738;2023-07-29T11:12:35;4.25;;;3.50;;
9413;SDS011;4746;35.664;139.738;2023-07-29T11:15:22;5.50;;;4.00;;
9413;SDS011;4746;35.664;139.738;2023-07-29T11:20:24;4.38;;;3.78;;
9413;SDS011;4746;35.664;139.738;2023-07-29T11:22:58;5.07;;;3.97;;
9413;SDS011;4746;35.664;139.738;2023-07-29T11:25:28;5.18;;;4.50;;
9413;SDS011;4746;35.664;139.738;2023-07-29T11:27:59;5.28;;;4.13;;
9413;SDS011;4746;35.664;139.738;2023-07-29T11:30:27;4.65;;;4.25;;
9413;SDS011;4746;35.664;139.738;2023-07-29T11:32:59;7.32;;;4.50;;
9413;SDS011;4746;35.664;139.738;2023-07-29T11:35:26;5.30;;;4.80;;
9413;SDS011;4746;35.664;139.738;2023-07-29T11:37:54;5.20;;;4.70;;
9413;SDS011;4746;35.664;139.738;2023-07-29T11:40:23;5.32;;;4.68;;
9413;SDS011;4746;35.664;139.738;2023-07-29T11:42:51;7.50;;;5.00;;
9413;SDS011;4746;35.664;139.738;2023-07-29T11:45:20;5.00;;;4.50;;
9413;SDS011;4746;35.664;139.738;2023-07-29T11:47:49;4.80;;;4.35;;
9413;SDS011;4746;35.664;139.738;2023-07-29T11:50:16;5.40;;;4.60;;
9413;SDS011;4746;35.664;139.738;2023-07-29T11:52:45;5.88;;;4.35;;
9413;SDS011;4746;35.664;139.738;2023-07-29T11:55:13;6.00;;;4.30;;
9413;SDS011;4746;35.664;139.738;2023-07-29T11:57:42;6.00;;;4.80;;
9413;SDS011;4746;35.664;139.738;2023-07-29T12:00:10;4.70;;;3.80;;
9413;SDS011;4746;35.664;139.738;2023-07-29T12:02:40;4.85;;;4.30;;
9413;SDS011;4746;35.664;139.738;2023-07-29T12:05:10;4.82;;;3.88;;
9413;SDS011;4746;35.664;139.738;2023-07-29T12:07:41;4.85;;;4.35;;
9413;SDS011;4746;35.664;139.738;2023-07-29T12:10:11;4.47;;;4.05;;
9413;SDS011;4746;35.664;139.738;2023-07-29T12:12:49;3.90;;;3.58;;
9413;SDS011;4746;35.664;139.738;2023-07-29T12:15:23;3.88;;;3.58;;
9413;SDS011;4746;35.664;139.738;2023-07-29T12:17:56;5.85;;;4.25;;
9413;SDS011;4746;35.664;139.738;2023-07-29T12:20:25;6.60;;;4.10;;
9413;SDS011;4746;35.664;139.738;2023-07-29T12:22:56;4.97;;;4.28;;
9413;SDS011;4746;35.664;139.738;2023-07-29T12:25:30;4.38;;;3.97;;
9413;SDS011;4746;35.664;139.738;2023-07-29T12:28:07;4.78;;;3.40;;
9413;SDS011;4746;35.664;139.738;2023-07-29T12:30:41;3.83;;;3.40;;
9413;SDS011;4746;35.664;139.738;2023-07-29T12:33:08;4.38;;;3.60;;
9413;SDS011;4746;35.664;139.738;2023-07-29T12:35:36;5.22;;;3.85;;
9413;SDS011;4746;35.664;139.738;2023-07-29T12:38:04;3.88;;;3.58;;
9413;SDS011;4746;35.664;139.738;2023-07-29T12:40:37;4.22;;;3.42;;
9413;SDS011;4746;35.664;139.738;2023-07-29T12:43:06;4.05;;;3.70;;
9413;SDS011;4746;35.664;139.738;2023-07-29T12:45:36;4.65;;;4.25;;
9413;SDS011;4746;35.664;139.738;2023-07-29T12:48:10;4.97;;;4.50;;
9413;SDS011;4746;35.664;139.738;2023-07-29T12:50:38;4.38;;;3.97;;
9413;SDS011;4746;35.664;139.738;2023-07-29T12:53:07;4.05;;;3.67;;
9413;SDS011;4746;35.664;139.738;2023-07-29T12:55:36;4.45;;;4.15;;
9413;SDS011;4746;35.664;139.738;2023-07-29T12:58:05;4.88;;;4.47;;
9413;SDS011;4746;35.664;139.738;2023-07-29T13:00:32;6.10;;;4.40;;
9413;SDS011;4746;35.664;139.738;2023-07-29T13:02:59;4.15;;;3.85;;
9413;SDS011;4746;35.664;139.738;2023-07-29T13:05:30;4.78;;;4.38;;
9413;SDS011;4746;35.664;139.738;2023-07-29T13:07:58;6.25;;;4.05;;
9413;SDS011;4746;35.664;139.738;2023-07-29T13:10:26;5.30;;;4.57;;
9413;SDS011;4746;35.664;139.738;2023-07-29T13:12:53;4.32;;;4.00;;
9413;SDS011;4746;35.664;139.738;2023-07-29T13:15:21;4.53;;;4.13;;
9413;SDS011;4746;35.664;139.738;2023-07-29T13:17:48;4.05;;;3.75;;
9413;SDS011;4746;35.664;139.738;2023-07-29T13:20:16;4.68;;;4.10;;
9413;SDS011;4746;35.664;139.738;2023-07-29T13:22:43;4.85;;;4.18;;
9413;SDS011;4746;35.664;139.738;2023-07-29T13:25:11;3.95;;;3.55;;
9413;SDS011;4746;35.664;139.738;2023-07-29T13:27:38;4.53;;;4.13;;
9413;SDS011;4746;35.664;139.738;2023-07-29T13:30:06;4.00;;;3.63;;
9413;SDS011;4746;35.664;139.738;2023-07-29T13:32:35;5.95;;;3.53;;
9413;SDS011;4746;35.664;139.738;2023-07-29T13:35:02;4.35;;;3.38;;
9413;SDS011;4746;35.664;139.738;2023-07-29T13:37:30;3.55;;;3.25;;
9413;SDS011;4746;35.664;139.738;2023-07-29T13:39:57;4.22;;;3.53;;
9413;SDS011;4746;35.664;139.738;2023-07-29T13:42:25;3.63;;;3.33;;
9413;SDS011;4746;35.664;139.738;2023-07-29T13:44:52;4.13;;;3.30;;
9413;SDS011;4746;35.664;139.738;2023-07-29T13:47:20;4.18;;;3.47;;
9413;SDS011;4746;35.664;139.738;2023-07-29T13:49:48;3.70;;;3.40;;
9413;SDS011;4746;35.664;139.738;2023-07-29T13:52:15;3.47;;;3.15;;
9413;SDS011;4746;35.664;139.738;2023-07-29T13:54:43;3.00;;;2.80;;
9413;SDS011;4746;35.664;139.738;2023-07-29T13:57:10;4.10;;;3.05;;
9413;SDS011;4746;35.664;139.738;2023-07-29T13:59:38;3.50;;;3.20;;
9413;SDS011;4746;35.664;139.738;2023-07-29T14:02:05;4.07;;;3.13;;
9413;SDS011;4746;35.664;139.738;2023-07-29T14:04:35;3.28;;;3.05;;
9413;SDS011;4746;35.664;139.738;2023-07-29T14:07:03;3.58;;;3.38;;
9413;SDS011;4746;35.664;139.738;2023-07-29T14:09:30;3.80;;;3.22;;
9413;SDS011;4746;35.664;139.738;2023-07-29T14:11:58;3.70;;;3.13;;
9413;SDS011;4746;35.664;139.738;2023-07-29T14:14:25;2.90;;;2.70;;
9413;SDS011;4746;35.664;139.738;2023-07-29T14:16:53;3.70;;;3.05;;
9413;SDS011;4746;35.664;139.738;2023-07-29T14:19:21;3.50;;;3.25;;
9413;SDS011;4746;35.664;139.738;2023-07-29T14:21:50;3.13;;;2.92;;
9413;SDS011;4746;35.664;139.738;2023-07-29T14:24:17;3.65;;;3.28;;
9413;SDS011;4746;35.664;139.738;2023-07-29T14:26:45;3.40;;;2.80;;
9413;SDS011;4746;35.664;139.738;2023-07-29T14:29:12;4.18;;;3.03;;
9413;SDS011;4746;35.664;139.738;2023-07-29T14:31:40;3.20;;;2.90;;
9413;SDS011;4746;35.664;139.738;2023-07-29T14:34:08;3.47;;;3.05;;
9413;SDS011;4746;35.664;139.738;2023-07-29T14:36:36;4.07;;;2.97;;
9413;SDS011;4746;35.664;139.738;2023-07-29T14:39:04;5.57;;;3.33;;
9413;SDS011;4746;35.664;139.738;2023-07-29T14:41:31;3.88;;;3.58;;
9413;SDS011;4746;35.664;139.738;2023-07-29T14:43:59;6.07;;;3.20;;
9413;SDS011;4746;35.664;139.738;2023-07-29T14:46:26;3.28;;;2.97;;
9413;SDS011;4746;35.664;139.738;2023-07-29T14:48:54;3.22;;;2.92;;
9413;SDS011;4746;35.664;139.738;2023-07-29T14:51:21;4.47;;;3.80;;
9413;SDS011;4746;35.664;139.738;2023-07-29T14:53:49;4.10;;;3.28;;
9413;SDS011;4746;35.664;139.738;2023-07-29T14:56:16;3.33;;;3.10;;
9413;SDS011;4746;35.664;139.738;2023-07-29T14:58:44;3.47;;;2.85;;
9413;SDS011;4746;35.664;139.738;2023-07-29T15:01:12;4.35;;;2.92;;
9413;SDS011;4746;35.664;139.738;2023-07-29T15:03:39;3.30;;;3.00;;
9413;SDS011;4746;35.664;139.738;2023-07-29T15:06:08;3.22;;;2.92;;
9413;SDS011;4746;35.664;139.738;2023-07-29T15:08:35;3.33;;;2.88;;
9413;SDS011;4746;35.664;139.738;2023-07-29T15:11:03;3.05;;;2.75;;
9413;SDS011;4746;35.664;139.738;2023-07-29T15:13:32;3.17;;;2.88;;
9413;SDS011;4746;35.664;139.738;2023-07-29T15:15:59;3.70;;;3.40;;
9413;SDS011;4746;35.664;139.738;2023-07-29T15:18:27;4.32;;;3.63;;
9413;SDS011;4746;35.664;139.738;2023-07-29T15:20:56;3.35;;;3.05;;
9413;SDS011;4746;35.664;139.738;2023-07-29T15:23:25;4.68;;;3.53;;
9413;SDS011;4746;35.664;139.738;2023-07-29T15:25:52;4.38;;;3.55;;
9413;SDS011;4746;35.664;139.738;2023-07-29T15:28:20;3.80;;;3.55;;